createdAt,value
2018-08-23T00:01:34.416Z,21.59
2018-08-23T00:04:05.988Z,21.52
2018-08-23T00:06:36.267Z,21.38
2018-08-23T00:09:08.537Z,21.31
2018-08-23T00:11:41.932Z,21.25
2018-08-23T00:14:11.969Z,21.19
2018-08-23T00:16:44.829Z,21.16
2018-08-23T00:19:14.820Z,21.11
2018-08-23T00:21:47.460Z,21.07
2018-08-23T00:24:18.438Z,21.03
2018-08-23T00:26:57.346Z,21.00
2018-08-23T00:29:34.401Z,20.90
2018-08-23T00:32:06.059Z,20.89
2018-08-23T00:34:36.919Z,20.88
2018-08-23T00:37:07.359Z,20.92
2018-08-23T00:39:37.203Z,20.95
2018-08-23T00:42:10.036Z,21.03
2018-08-23T00:44:59.128Z,21.14
2018-08-23T00:47:33.219Z,21.14
2018-08-23T00:50:03.020Z,21.21
2018-08-23T00:52:43.722Z,21.18
2018-08-23T00:55:17.900Z,21.16
2018-08-23T00:57:47.863Z,21.13
2018-08-23T01:00:19.418Z,21.07
2018-08-23T01:02:54.516Z,21.07
2018-08-23T01:05:29.391Z,21.08
2018-08-23T01:07:59.114Z,21.06
2018-08-23T01:10:28.842Z,21.05
2018-08-23T01:13:01.544Z,21.06
2018-08-23T01:15:32.598Z,21.04
2018-08-23T01:18:11.968Z,21.04
2018-08-23T01:20:42.536Z,21.02
2018-08-23T01:23:12.301Z,21.01
2018-08-23T01:25:44.577Z,20.99
2018-08-23T01:28:14.599Z,20.94
2018-08-23T01:30:44.903Z,20.91
2018-08-23T01:33:17.934Z,20.86
2018-08-23T01:35:49.018Z,20.81
2018-08-23T01:38:19.090Z,20.79
2018-08-23T01:40:48.938Z,20.77
2018-08-23T01:43:18.804Z,20.69
2018-08-23T01:45:48.587Z,20.65
2018-08-23T01:48:18.265Z,20.58
2018-08-23T01:50:47.956Z,20.55
2018-08-23T01:53:19.828Z,20.57
2018-08-23T01:55:49.551Z,20.56
2018-08-23T01:58:19.631Z,20.54
2018-08-23T02:00:59.748Z,20.53
2018-08-23T02:03:29.535Z,20.51
2018-08-23T02:05:59.240Z,20.50
2018-08-23T02:08:29.288Z,20.37
2018-08-23T02:10:59.013Z,20.21
2018-08-23T02:13:29.411Z,20.10
2018-08-23T02:16:02.243Z,19.99
2018-08-23T02:18:32.556Z,19.90
2018-08-23T02:21:08.203Z,19.83
2018-08-23T02:23:46.569Z,19.74
2018-08-23T02:26:16.304Z,19.64
2018-08-23T02:28:47.740Z,19.74
2018-08-23T02:31:17.588Z,19.74
2018-08-23T02:33:47.328Z,19.73
2018-08-23T02:36:17.419Z,19.84
2018-08-23T02:38:49.463Z,19.92
2018-08-23T02:41:19.179Z,19.88
2018-08-23T02:43:48.884Z,19.81
2018-08-23T02:46:19.142Z,19.75
2018-08-23T02:48:48.861Z,19.82
2018-08-23T02:51:18.616Z,19.87
2018-08-23T02:53:49.264Z,19.79
2018-08-23T02:56:20.889Z,19.77
2018-08-23T02:58:56.417Z,19.74
2018-08-23T03:01:27.876Z,19.69
2018-08-23T03:04:16.871Z,19.69
2018-08-23T03:06:51.148Z,19.71
2018-08-23T03:09:22.957Z,19.78
2018-08-23T03:11:53.857Z,19.67
2018-08-23T03:14:24.543Z,19.59
2018-08-23T03:17:30.136Z,19.51
2018-08-23T03:20:01.379Z,19.50
2018-08-23T03:22:32.317Z,19.41
2018-08-23T03:25:03.825Z,19.37
2018-08-23T03:27:33.609Z,19.37
2018-08-23T03:30:04.267Z,19.27
2018-08-23T03:32:33.944Z,19.28
2018-08-23T03:35:03.648Z,19.22
2018-08-23T03:37:33.365Z,19.33
2018-08-23T03:40:03.136Z,19.31
2018-08-23T03:42:32.876Z,19.27
2018-08-23T03:45:02.863Z,19.17
2018-08-23T03:47:38.384Z,19.10
2018-08-23T03:50:09.336Z,18.98
2018-08-23T03:52:42.500Z,18.97
2018-08-23T03:55:12.309Z,19.01
2018-08-23T03:57:47.092Z,19.03
2018-08-23T04:00:16.885Z,18.98
2018-08-23T04:02:46.555Z,19.03
2018-08-23T04:05:19.228Z,18.98
2018-08-23T04:07:48.892Z,18.90
2018-08-23T04:10:18.557Z,18.85
2018-08-23T04:12:48.268Z,18.83
2018-08-23T04:15:31.312Z,18.84
2018-08-23T04:18:06.099Z,18.76
2018-08-23T04:20:35.932Z,18.75
2018-08-23T04:23:05.644Z,18.74
2018-08-23T04:25:35.400Z,18.80
2018-08-23T04:28:05.117Z,18.86
2018-08-23T04:30:34.795Z,18.85
2018-08-23T04:33:04.676Z,18.84
2018-08-23T04:35:34.476Z,18.88
2018-08-23T04:38:04.192Z,18.86
2018-08-23T04:40:33.981Z,18.83
2018-08-23T04:43:03.824Z,18.77
2018-08-23T04:45:34.743Z,18.89
2018-08-23T04:48:06.576Z,18.92
2018-08-23T04:50:36.943Z,18.97
2018-08-23T04:53:06.738Z,18.95
2018-08-23T04:55:36.489Z,18.95
2018-08-23T04:58:06.860Z,18.98
2018-08-23T05:00:36.635Z,18.98
2018-08-23T05:03:06.623Z,19.05
2018-08-23T05:05:36.687Z,19.10
2018-08-23T05:08:06.431Z,19.18
2018-08-23T05:10:36.288Z,19.22
2018-08-23T05:13:05.989Z,19.26
2018-08-23T05:15:35.728Z,19.32
2018-08-23T05:18:05.480Z,19.40
2018-08-23T05:20:35.464Z,19.47
2018-08-23T05:23:06.025Z,19.55
2018-08-23T05:25:35.709Z,19.63
2018-08-23T05:28:18.376Z,19.70
2018-08-23T05:30:49.308Z,19.78
2018-08-23T05:33:22.120Z,19.89
2018-08-23T05:35:51.791Z,19.94
2018-08-23T05:38:21.495Z,20.01
2018-08-23T05:41:18.124Z,20.06
2018-08-23T05:43:53.404Z,20.13
2018-08-23T05:46:23.401Z,20.21
2018-08-23T05:48:53.618Z,20.28
2018-08-23T05:51:23.803Z,20.36
2018-08-23T05:53:55.393Z,20.43
2018-08-23T05:56:25.128Z,20.52
2018-08-23T05:58:59.428Z,20.59
2018-08-23T06:01:29.156Z,20.65
2018-08-23T06:03:58.830Z,20.74
2018-08-23T06:06:28.871Z,20.74
2018-08-23T06:09:00.942Z,20.84
2018-08-23T06:11:30.709Z,20.83
2018-08-23T06:14:01.465Z,20.93
2018-08-23T06:16:31.753Z,21.00
2018-08-23T06:19:07.921Z,21.02
2018-08-23T06:21:37.670Z,21.16
2018-08-23T06:24:08.540Z,21.25
2018-08-23T06:26:46.348Z,21.38
2018-08-23T06:29:18.495Z,21.53
2018-08-23T06:31:57.522Z,21.60
2018-08-23T06:34:28.908Z,21.72
2018-08-23T06:36:58.627Z,21.84
2018-08-23T06:39:28.393Z,21.93
2018-08-23T06:41:59.467Z,22.08
2018-08-23T06:44:39.351Z,22.18
2018-08-23T06:47:09.848Z,22.28
2018-08-23T06:49:39.673Z,22.28
2018-08-23T06:52:11.706Z,22.31
2018-08-23T06:54:42.076Z,22.37
2018-08-23T06:57:12.155Z,22.42
2018-08-23T06:59:42.300Z,22.55
2018-08-23T07:02:12.392Z,22.74
2018-08-23T07:04:42.252Z,22.77
2018-08-23T07:07:16.929Z,22.85
2018-08-23T07:09:46.673Z,22.93
2018-08-23T07:12:21.506Z,23.02
2018-08-23T07:14:51.768Z,23.06
2018-08-23T07:17:27.681Z,23.24
2018-08-23T07:20:00.464Z,23.19
2018-08-23T07:22:30.635Z,23.15
2018-08-23T07:25:00.674Z,23.22
2018-08-23T07:27:30.767Z,23.38
2018-08-23T07:30:01.058Z,23.48
2018-08-23T07:32:31.479Z,23.52
2018-08-23T07:35:06.378Z,23.70
2018-08-23T07:37:37.257Z,23.60
2018-08-23T07:40:12.235Z,23.60
2018-08-23T07:42:43.131Z,23.53
2018-08-23T07:45:13.180Z,23.60
2018-08-23T07:47:51.792Z,23.71
2018-08-23T07:50:22.224Z,23.86
2018-08-23T07:52:53.321Z,23.90
2018-08-23T07:55:23.415Z,23.99
2018-08-23T07:57:53.158Z,24.09
2018-08-23T08:00:31.692Z,24.19
2018-08-23T08:03:01.702Z,24.27
2018-08-23T08:05:33.352Z,24.53
2018-08-23T08:08:03.321Z,24.72
2018-08-23T08:10:35.923Z,24.92
2018-08-23T08:13:06.104Z,25.00
2018-08-23T08:15:35.811Z,25.01
2018-08-23T08:18:08.389Z,25.13
2018-08-23T08:20:38.172Z,25.29
2018-08-23T08:23:07.904Z,25.39
2018-08-23T08:25:37.649Z,25.37
2018-08-23T08:28:14.203Z,25.43
2018-08-23T08:30:45.470Z,25.41
2018-08-23T08:33:20.420Z,25.62
2018-08-23T08:35:51.110Z,25.78
2018-08-23T08:38:20.812Z,25.83
2018-08-23T08:40:52.209Z,26.00
2018-08-23T08:43:21.915Z,26.09
2018-08-23T08:45:55.839Z,26.19
2018-08-23T08:48:31.039Z,26.31
2018-08-23T08:51:21.157Z,26.48
2018-08-23T08:53:51.211Z,26.67
2018-08-23T08:56:32.432Z,26.79
2018-08-23T08:59:02.165Z,26.83
2018-08-23T09:01:32.170Z,27.02
2018-08-23T09:04:02.212Z,27.19
2018-08-23T09:06:50.424Z,27.31
2018-08-23T09:09:30.027Z,27.51
2018-08-23T09:12:01.479Z,27.68
2018-08-23T09:14:31.208Z,27.40
2018-08-23T09:17:02.704Z,27.34
2018-08-23T09:19:43.493Z,27.54
2018-08-23T09:22:19.280Z,27.59
2018-08-23T09:24:49.053Z,27.60
2018-08-23T09:27:19.448Z,27.79
2018-08-23T09:29:49.512Z,28.03
2018-08-23T09:32:24.749Z,28.13
2018-08-23T09:35:00.837Z,28.35
2018-08-23T09:37:34.919Z,28.47
2018-08-23T09:40:05.104Z,28.44
2018-08-23T09:42:36.143Z,28.37
2018-08-23T09:45:12.744Z,28.64
2018-08-23T09:47:42.815Z,28.75
2018-08-23T09:50:12.636Z,28.97
2018-08-23T09:52:44.856Z,29.16
2018-08-23T09:55:16.284Z,29.32
2018-08-23T09:57:46.360Z,29.33
2018-08-23T10:00:21.760Z,29.38
2018-08-23T10:02:56.764Z,29.54
2018-08-23T10:05:31.640Z,29.62
2018-08-23T10:08:06.528Z,29.81
2018-08-23T10:10:41.331Z,29.86
2018-08-23T10:13:16.148Z,30.06
2018-08-23T10:16:48.655Z,29.87
2018-08-23T10:19:23.864Z,29.81
2018-08-23T10:21:58.883Z,30.15
2018-08-23T10:24:33.112Z,30.28
2018-08-23T10:27:02.841Z,30.32
2018-08-23T10:29:32.562Z,30.30
2018-08-23T10:32:02.415Z,30.50
2018-08-23T10:34:32.241Z,30.61
2018-08-23T10:37:01.953Z,30.57
2018-08-23T10:39:32.050Z,30.40
2018-08-23T10:42:01.764Z,30.32
2018-08-23T10:44:32.440Z,30.02
2018-08-23T10:47:02.161Z,29.97
2018-08-23T10:49:31.871Z,29.88
2018-08-23T10:52:01.860Z,29.88
2018-08-23T10:54:32.072Z,29.84
2018-08-23T10:57:01.769Z,30.11
2018-08-23T10:59:32.185Z,30.28
2018-08-23T11:02:01.885Z,30.49
2018-08-23T11:04:31.630Z,30.44
2018-08-23T11:07:01.328Z,30.59
2018-08-23T11:09:36.350Z,30.91
2018-08-23T11:12:09.495Z,31.13
2018-08-23T11:14:41.539Z,31.36
2018-08-23T11:17:16.490Z,31.41
2018-08-23T11:19:51.551Z,31.23
2018-08-23T11:22:25.412Z,31.39
2018-08-23T11:24:55.105Z,31.40
2018-08-23T11:27:25.304Z,31.38
2018-08-23T11:29:55.018Z,31.42
2018-08-23T11:32:25.161Z,31.29
2018-08-23T11:34:54.923Z,31.30
2018-08-23T11:37:24.988Z,31.39
2018-08-23T11:39:54.980Z,31.54
2018-08-23T11:42:25.073Z,31.56
2018-08-23T11:44:55.064Z,31.72
2018-08-23T11:47:24.889Z,31.62
2018-08-23T11:49:54.571Z,31.72
2018-08-23T11:52:24.336Z,31.81
2018-08-23T11:54:54.035Z,31.87
2018-08-23T11:57:24.151Z,32.09
2018-08-23T11:59:54.205Z,32.26
2018-08-23T12:02:23.883Z,32.17
2018-08-23T12:04:53.593Z,31.81
2018-08-23T12:07:23.579Z,31.74
2018-08-23T12:09:53.409Z,31.80
2018-08-23T12:12:23.187Z,32.13
2018-08-23T12:14:57.072Z,32.31
2018-08-23T12:17:26.820Z,32.51
2018-08-23T12:19:56.985Z,32.41
2018-08-23T12:22:31.764Z,32.30
2018-08-23T12:25:02.362Z,32.06
2018-08-23T12:27:32.409Z,32.12
2018-08-23T12:30:05.132Z,32.36
2018-08-23T12:32:34.792Z,32.47
2018-08-23T12:35:04.877Z,32.44
2018-08-23T12:37:39.830Z,32.42
2018-08-23T12:40:14.548Z,32.38
2018-08-23T12:42:50.480Z,32.34
2018-08-23T12:45:20.321Z,32.47
2018-08-23T12:47:50.447Z,32.63
2018-08-23T12:50:20.560Z,32.62
2018-08-23T12:52:50.283Z,32.62
2018-08-23T12:55:20.365Z,32.56
2018-08-23T12:57:50.099Z,32.82
2018-08-23T13:00:20.015Z,32.87
2018-08-23T13:02:50.139Z,32.74
2018-08-23T13:05:20.096Z,32.80
2018-08-23T13:07:49.784Z,33.08
2018-08-23T13:10:19.597Z,33.19
2018-08-23T13:12:49.321Z,33.29
2018-08-23T13:15:19.700Z,33.38
2018-08-23T13:17:49.754Z,33.03
2018-08-23T13:20:19.929Z,32.65
2018-08-23T13:22:49.672Z,32.74
2018-08-23T13:25:19.484Z,32.79
2018-08-23T13:27:49.430Z,33.01
2018-08-23T13:30:19.633Z,33.08
2018-08-23T13:32:49.348Z,33.22
2018-08-23T13:35:19.127Z,33.22
2018-08-23T13:37:48.847Z,33.37
2018-08-23T13:40:19.733Z,33.53
2018-08-23T13:42:49.964Z,33.34
2018-08-23T13:45:19.683Z,33.23
2018-08-23T13:47:49.515Z,33.37
2018-08-23T13:50:19.627Z,33.29
2018-08-23T13:52:49.441Z,33.30
2018-08-23T13:55:19.465Z,33.27
2018-08-23T13:57:49.287Z,33.36
2018-08-23T14:00:29.372Z,33.39
2018-08-23T14:03:00.314Z,33.59
2018-08-23T14:05:30.455Z,33.70
2018-08-23T14:08:00.496Z,33.65
2018-08-23T14:10:30.217Z,33.70
2018-08-23T14:12:59.921Z,33.73
2018-08-23T14:15:34.897Z,33.37
2018-08-23T14:18:04.944Z,33.22
2018-08-23T14:20:34.690Z,33.15
2018-08-23T14:23:04.404Z,33.16
2018-08-23T14:25:34.153Z,33.12
2018-08-23T14:28:03.840Z,32.95
2018-08-23T14:30:33.559Z,32.82
2018-08-23T14:33:03.330Z,32.69
2018-08-23T14:35:33.279Z,32.66
2018-08-23T14:38:02.966Z,32.68
2018-08-23T14:40:32.684Z,32.72
2018-08-23T14:43:02.958Z,32.68
2018-08-23T14:45:33.791Z,32.41
2018-08-23T14:48:08.905Z,32.19
2018-08-23T14:50:38.676Z,32.15
2018-08-23T14:53:08.926Z,32.07
2018-08-23T14:55:44.173Z,31.88
2018-08-23T14:58:14.414Z,31.70
2018-08-23T15:00:44.629Z,31.67
2018-08-23T15:03:15.204Z,31.55
2018-08-23T15:05:45.261Z,31.60
2018-08-23T15:08:14.953Z,31.59
2018-08-23T15:10:44.708Z,31.53
2018-08-23T15:13:14.615Z,31.45
2018-08-23T15:15:49.579Z,31.36
2018-08-23T15:18:20.836Z,31.24
2018-08-23T15:20:51.310Z,31.21
2018-08-23T15:23:21.121Z,31.18
2018-08-23T15:25:50.852Z,31.10
2018-08-23T15:28:20.539Z,31.05
2018-08-23T15:30:50.281Z,31.03
2018-08-23T15:33:20.636Z,31.04
2018-08-23T15:35:50.360Z,30.95
2018-08-23T15:38:20.060Z,30.91
2018-08-23T15:40:49.790Z,30.79
2018-08-23T15:43:20.376Z,30.78
2018-08-23T15:45:50.140Z,30.75
2018-08-23T15:48:19.873Z,30.73
2018-08-23T15:50:50.378Z,30.67
2018-08-23T15:53:20.487Z,30.52
2018-08-23T15:55:50.338Z,30.54
2018-08-23T15:58:20.262Z,30.50
2018-08-23T16:00:50.013Z,30.50
2018-08-23T16:03:19.739Z,30.47
2018-08-23T16:05:49.541Z,30.44
2018-08-23T16:08:19.245Z,30.45
2018-08-23T16:10:48.968Z,30.38
2018-08-23T16:13:18.776Z,30.36
2018-08-23T16:15:51.277Z,30.27
2018-08-23T16:19:26.877Z,30.23
2018-08-23T16:21:57.740Z,30.08
2018-08-23T16:24:28.346Z,30.11
2018-08-23T16:27:02.889Z,29.88
2018-08-23T16:29:32.640Z,29.96
2018-08-23T16:32:02.441Z,29.94
2018-08-23T16:34:32.440Z,29.97
2018-08-23T16:37:02.179Z,29.89
2018-08-23T16:39:31.884Z,29.83
2018-08-23T16:42:01.740Z,29.75
2018-08-23T16:44:31.419Z,29.69
2018-08-23T16:47:01.139Z,29.66
2018-08-23T16:49:30.864Z,29.56
2018-08-23T16:52:00.540Z,29.53
2018-08-23T16:54:30.257Z,29.52
2018-08-23T16:56:59.972Z,29.49
2018-08-23T16:59:29.665Z,29.41
2018-08-23T17:01:59.388Z,29.37
2018-08-23T17:04:34.060Z,29.36
2018-08-23T17:07:03.769Z,29.30
2018-08-23T17:09:33.454Z,29.33
2018-08-23T17:12:03.226Z,29.19
2018-08-23T17:14:32.900Z,29.13
2018-08-23T17:17:07.780Z,29.07
2018-08-23T17:19:37.896Z,29.04
2018-08-23T17:22:07.639Z,28.99
2018-08-23T17:24:37.535Z,28.93
2018-08-23T17:27:07.530Z,28.86
2018-08-23T17:29:37.728Z,28.82
2018-08-23T17:32:08.335Z,28.82
2018-08-23T17:34:38.151Z,28.69
2018-08-23T17:37:07.851Z,28.63
2018-08-23T17:39:37.968Z,28.53
2018-08-23T17:42:07.767Z,28.49
2018-08-23T17:44:37.488Z,28.39
2018-08-23T17:47:07.508Z,28.33
2018-08-23T17:49:37.279Z,28.31
2018-08-23T17:52:07.088Z,28.21
2018-08-23T17:54:36.801Z,28.21
2018-08-23T17:57:06.882Z,28.12
2018-08-23T17:59:36.884Z,27.98
2018-08-23T18:02:06.816Z,27.83
2018-08-23T18:04:36.505Z,27.83
2018-08-23T18:07:06.496Z,27.72
2018-08-23T18:09:36.243Z,27.63
2018-08-23T18:12:05.993Z,27.62
2018-08-23T18:14:35.688Z,27.54
2018-08-23T18:17:05.457Z,27.50
2018-08-23T18:19:35.152Z,27.42
2018-08-23T18:22:05.422Z,27.40
2018-08-23T18:24:35.188Z,27.43
2018-08-23T18:27:05.234Z,27.30
2018-08-23T18:29:35.040Z,27.20
2018-08-23T18:32:04.950Z,27.18
2018-08-23T18:34:34.667Z,27.05
2018-08-23T18:37:04.672Z,26.97
2018-08-23T18:39:35.100Z,26.92
2018-08-23T18:42:04.831Z,26.81
2018-08-23T18:44:34.547Z,26.79
2018-08-23T18:47:04.898Z,26.70
2018-08-23T18:49:34.671Z,26.53
2018-08-23T18:52:04.519Z,26.27
2018-08-23T18:54:34.515Z,26.10
2018-08-23T18:57:04.812Z,25.95
2018-08-23T18:59:34.852Z,25.99
2018-08-23T19:02:04.649Z,26.06
2018-08-23T19:04:34.476Z,26.00
2018-08-23T19:07:04.565Z,25.95
2018-08-23T19:09:34.636Z,25.90
2018-08-23T19:12:04.915Z,25.85
2018-08-23T19:14:34.660Z,25.79
2018-08-23T19:17:09.500Z,25.72
2018-08-23T19:19:39.380Z,25.58
2018-08-23T19:22:10.217Z,25.50
2018-08-23T19:24:40.293Z,25.46
2018-08-23T19:27:09.997Z,25.43
2018-08-23T19:29:39.712Z,25.05
2018-08-23T19:32:09.445Z,25.12
2018-08-23T19:34:39.124Z,25.00
2018-08-23T19:37:08.979Z,25.06
2018-08-23T19:39:38.920Z,25.00
2018-08-23T19:42:08.780Z,24.98
2018-08-23T19:44:43.637Z,24.92
2018-08-23T19:47:18.435Z,24.89
2018-08-23T19:49:52.319Z,24.88
2018-08-23T19:52:22.444Z,24.77
2018-08-23T19:54:52.663Z,24.59
2018-08-23T19:57:22.573Z,24.47
2018-08-23T19:59:52.254Z,24.63
2018-08-23T20:02:21.974Z,24.53
2018-08-23T20:04:52.344Z,24.35
2018-08-23T20:07:22.446Z,24.35
2018-08-23T20:09:52.507Z,24.26
2018-08-23T20:12:22.467Z,24.38
2018-08-23T20:14:52.599Z,24.19
2018-08-23T20:17:22.771Z,24.13
2018-08-23T20:19:53.471Z,24.13
2018-08-23T20:22:23.192Z,24.15
2018-08-23T20:24:52.932Z,24.19
2018-08-23T20:27:23.008Z,24.32
2018-08-23T20:29:53.452Z,24.25
2018-08-23T20:32:23.632Z,24.35
2018-08-23T20:34:53.707Z,24.31
2018-08-23T20:40:03.407Z,24.29
2018-08-23T20:42:33.210Z,24.37
2018-08-23T20:45:02.944Z,24.25
2018-08-23T20:47:32.693Z,24.35
2018-08-23T20:50:02.662Z,24.39
2018-08-23T20:52:32.443Z,24.28
2018-08-23T20:57:53.245Z,24.16
2018-08-23T21:00:22.947Z,24.13
2018-08-23T21:02:52.709Z,24.12
2018-08-23T21:05:22.395Z,24.11
2018-08-23T21:07:52.097Z,23.95
2018-08-23T21:10:21.828Z,24.02
2018-08-23T21:12:51.502Z,23.96
2018-08-23T21:15:21.568Z,24.07
2018-08-23T21:17:51.715Z,24.07
2018-08-23T21:20:21.729Z,24.04
2018-08-23T21:22:51.808Z,24.00
2018-08-23T21:25:21.898Z,23.86
2018-08-23T21:27:52.179Z,23.79
2018-08-23T21:30:21.920Z,23.86
2018-08-23T21:32:51.930Z,23.75
2018-08-23T21:35:21.678Z,23.79
2018-08-23T21:37:51.378Z,23.79
2018-08-23T21:40:21.453Z,23.84
2018-08-23T21:42:51.540Z,23.79
2018-08-23T21:45:21.344Z,23.61
2018-08-23T21:47:51.034Z,23.59
2018-08-23T21:50:21.154Z,23.54
2018-08-23T21:52:51.530Z,23.53
2018-08-23T21:55:25.539Z,23.55
2018-08-23T21:57:55.467Z,23.51
2018-08-23T22:00:25.152Z,23.54
2018-08-23T22:02:54.900Z,23.49
2018-08-23T22:05:24.987Z,23.48
2018-08-23T22:07:54.748Z,23.51
2018-08-23T22:10:24.760Z,23.51
2018-08-23T22:12:54.516Z,23.51
2018-08-23T22:15:24.299Z,23.43
2018-08-23T22:17:53.933Z,23.39
2018-08-23T22:20:23.674Z,23.31
2018-08-23T22:22:53.377Z,23.26
2018-08-23T22:25:23.113Z,23.21
2018-08-23T22:27:52.819Z,23.17
2018-08-23T22:30:22.533Z,23.02
2018-08-23T22:32:52.235Z,22.92
2018-08-23T22:35:21.984Z,22.92
2018-08-23T22:37:51.699Z,23.06
2018-08-23T22:40:21.445Z,23.03
2018-08-23T22:42:51.175Z,22.97
2018-08-23T22:45:20.921Z,22.84
2018-08-23T22:47:50.648Z,22.89
2018-08-23T22:50:20.368Z,22.87
2018-08-23T22:52:50.309Z,22.81
2018-08-23T22:55:20.413Z,22.84
2018-08-23T22:57:50.161Z,22.80
2018-08-23T23:00:24.294Z,22.77
2018-08-23T23:02:54.036Z,22.80
2018-08-23T23:05:23.839Z,22.79
2018-08-23T23:07:54.052Z,22.83
2018-08-23T23:10:23.748Z,22.77
2018-08-23T23:12:53.425Z,22.51
2018-08-23T23:15:26.348Z,22.27
2018-08-23T23:17:56.038Z,22.34
2018-08-23T23:20:26.433Z,22.13
2018-08-23T23:22:56.504Z,22.20
2018-08-23T23:25:26.983Z,22.09
2018-08-23T23:27:57.467Z,21.87
2018-08-23T23:30:27.229Z,21.88
2018-08-23T23:32:57.259Z,21.73
2018-08-23T23:35:27.360Z,21.66
2018-08-23T23:37:57.090Z,21.73
2018-08-23T23:40:26.779Z,21.52
2018-08-23T23:42:56.535Z,21.45
2018-08-23T23:45:26.220Z,21.30
2018-08-23T23:47:56.435Z,21.28
2018-08-23T23:50:26.423Z,21.52
2018-08-23T23:52:56.525Z,21.32
2018-08-23T23:55:26.234Z,21.16
2018-08-23T23:57:55.948Z,21.05
